createdAt,value
2018-11-14T00:00:03.146Z,8.50
2018-11-14T00:02:31.521Z,8.40
2018-11-14T00:04:59.929Z,8.40
2018-11-14T00:07:28.643Z,8.40
2018-11-14T00:09:57.238Z,8.40
2018-11-14T00:12:25.592Z,8.30
2018-11-14T00:14:53.988Z,8.30
2018-11-14T00:17:22.471Z,8.30
2018-11-14T00:19:50.811Z,8.30
2018-11-14T00:22:19.171Z,8.30
2018-11-14T00:24:47.683Z,8.30
2018-11-14T00:27:16.020Z,8.30
2018-11-14T00:29:44.387Z,8.30
2018-11-14T00:32:12.735Z,8.20
2018-11-14T00:34:41.174Z,8.20
2018-11-14T00:37:09.516Z,8.30
2018-11-14T00:39:37.927Z,8.20
2018-11-14T00:42:06.334Z,8.10
2018-11-14T00:44:34.683Z,8.10
2018-11-14T00:47:03.040Z,8.20
2018-11-14T00:49:31.395Z,8.10
2018-11-14T00:51:59.777Z,8.20
2018-11-14T00:54:28.114Z,8.10
2018-11-14T00:56:56.467Z,8.10
2018-11-14T00:59:24.898Z,8.00
2018-11-14T01:01:53.304Z,8.10
2018-11-14T01:04:21.691Z,8.20
2018-11-14T01:06:50.077Z,8.20
2018-11-14T01:09:18.632Z,8.10
2018-11-14T01:11:46.834Z,8.00
2018-11-14T01:14:15.210Z,8.00
2018-11-14T01:16:43.724Z,8.10
2018-11-14T01:19:12.068Z,8.00
2018-11-14T01:21:40.426Z,8.00
2018-11-14T01:24:08.936Z,8.10
2018-11-14T01:26:37.294Z,8.00
2018-11-14T01:29:05.740Z,8.00
2018-11-14T01:31:34.138Z,8.00
2018-11-14T01:34:02.539Z,8.00
2018-11-14T01:36:30.898Z,8.00
2018-11-14T01:38:59.247Z,8.00
2018-11-14T01:41:28.087Z,8.10
2018-11-14T01:43:56.447Z,8.20
2018-11-14T01:46:24.808Z,8.30
2018-11-14T01:48:53.162Z,8.20
2018-11-14T01:51:21.502Z,8.30
2018-11-14T01:53:49.917Z,8.20
2018-11-14T01:56:18.243Z,8.20
2018-11-14T01:58:46.655Z,8.20
2018-11-14T02:01:15.014Z,8.20
2018-11-14T02:03:44.331Z,8.10
2018-11-14T02:06:12.654Z,8.00
2018-11-14T02:08:41.111Z,8.10
2018-11-14T02:11:09.468Z,8.10
2018-11-14T02:13:37.835Z,8.00
2018-11-14T02:16:06.696Z,8.00
2018-11-14T02:18:35.115Z,7.90
2018-11-14T02:21:03.495Z,7.90
2018-11-14T02:23:31.887Z,7.80
2018-11-14T02:26:00.225Z,7.80
2018-11-14T02:28:28.614Z,7.70
2018-11-14T02:30:56.987Z,7.80
2018-11-14T02:33:25.331Z,7.70
2018-11-14T02:35:53.737Z,7.70
2018-11-14T02:38:22.098Z,7.60
2018-11-14T02:40:50.515Z,7.60
2018-11-14T02:43:18.904Z,7.50
2018-11-14T02:45:47.265Z,7.40
2018-11-14T02:48:15.694Z,7.60
2018-11-14T02:50:44.228Z,7.60
2018-11-14T02:53:12.598Z,7.60
2018-11-14T02:55:40.973Z,7.60
2018-11-14T02:58:09.331Z,7.50
2018-11-14T03:00:37.682Z,7.60
2018-11-14T03:03:06.059Z,7.50
2018-11-14T03:05:34.507Z,7.50
2018-11-14T03:08:02.837Z,7.60
2018-11-14T03:10:31.195Z,7.60
2018-11-14T03:12:59.570Z,7.50
2018-11-14T03:15:28.016Z,7.50
2018-11-14T03:17:56.375Z,7.50
2018-11-14T03:20:24.755Z,7.40
2018-11-14T03:22:53.115Z,7.40
2018-11-14T03:25:21.463Z,7.30
2018-11-14T03:27:49.808Z,7.30
2018-11-14T03:30:18.800Z,7.40
2018-11-14T03:32:47.187Z,7.40
2018-11-14T03:35:15.951Z,7.40
2018-11-14T03:37:44.316Z,7.40
2018-11-14T03:40:14.921Z,7.40
2018-11-14T03:42:43.341Z,7.40
2018-11-14T03:45:12.932Z,7.50
2018-11-14T03:47:42.015Z,7.50
2018-11-14T03:50:10.742Z,7.30
2018-11-14T03:52:39.180Z,7.40
2018-11-14T03:55:07.616Z,7.50
2018-11-14T03:57:36.084Z,7.50
2018-11-14T04:00:07.645Z,7.50
2018-11-14T04:02:36.059Z,7.40
2018-11-14T04:05:05.115Z,7.50
2018-11-14T04:07:33.510Z,7.60
2018-11-14T04:10:01.882Z,7.60
2018-11-14T04:12:30.317Z,7.50
2018-11-14T04:14:58.614Z,7.50
2018-11-14T04:17:26.984Z,7.40
2018-11-14T04:19:55.323Z,7.40
2018-11-14T04:22:23.719Z,7.30
2018-11-14T04:24:52.067Z,7.30
2018-11-14T04:27:20.429Z,7.30
2018-11-14T04:29:48.756Z,7.20
2018-11-14T04:32:17.151Z,7.10
2018-11-14T04:34:45.560Z,7.10
2018-11-14T04:37:13.905Z,7.20
2018-11-14T04:39:42.763Z,7.20
2018-11-14T04:42:11.851Z,7.20
2018-11-14T04:44:40.927Z,7.30
2018-11-14T04:47:09.238Z,7.20
2018-11-14T04:49:37.678Z,7.10
2018-11-14T04:52:06.029Z,7.10
2018-11-14T04:54:34.403Z,7.10
2018-11-14T04:57:02.723Z,7.00
2018-11-14T04:59:31.131Z,6.90
2018-11-14T05:01:59.511Z,6.90
2018-11-14T05:04:27.884Z,6.90
2018-11-14T05:06:56.228Z,6.90
2018-11-14T05:09:24.576Z,6.80
2018-11-14T05:11:52.931Z,6.90
2018-11-14T05:14:21.305Z,7.00
2018-11-14T05:16:49.642Z,7.10
2018-11-14T05:19:18.105Z,7.20
2018-11-14T05:21:46.435Z,7.20
2018-11-14T05:24:14.801Z,7.20
2018-11-14T05:26:43.169Z,7.20
2018-11-14T05:29:11.542Z,7.30
2018-11-14T05:31:40.553Z,7.20
2018-11-14T05:34:08.857Z,7.00
2018-11-14T05:36:37.227Z,7.00
2018-11-14T05:39:08.515Z,7.00
2018-11-14T05:41:36.926Z,6.80
2018-11-14T05:44:05.476Z,6.90
2018-11-14T05:46:34.069Z,7.00
2018-11-14T05:49:02.485Z,6.80
2018-11-14T05:51:30.834Z,6.80
2018-11-14T05:53:59.223Z,6.90
2018-11-14T05:56:27.582Z,7.10
2018-11-14T05:58:55.956Z,7.00
2018-11-14T06:01:24.329Z,7.00
2018-11-14T06:03:52.655Z,7.00
2018-11-14T06:06:21.022Z,6.90
2018-11-14T06:08:49.931Z,6.90
2018-11-14T06:11:18.322Z,6.80
2018-11-14T06:13:46.998Z,6.80
2018-11-14T06:16:15.323Z,6.90
2018-11-14T06:18:43.703Z,6.90
2018-11-14T06:21:12.085Z,6.90
2018-11-14T06:23:40.570Z,6.90
2018-11-14T06:26:08.831Z,6.80
2018-11-14T06:28:37.164Z,6.80
2018-11-14T06:31:05.658Z,6.80
2018-11-14T06:33:34.043Z,6.90
2018-11-14T06:36:02.698Z,6.80
2018-11-14T06:38:31.112Z,6.80
2018-11-14T06:40:59.455Z,6.80
2018-11-14T06:43:27.823Z,6.80
2018-11-14T06:45:56.153Z,6.70
2018-11-14T06:48:24.502Z,6.70
2018-11-14T06:50:52.963Z,6.80
2018-11-14T06:53:21.367Z,7.00
2018-11-14T06:55:49.726Z,7.20
2018-11-14T06:58:18.078Z,7.10
2018-11-14T07:00:46.455Z,7.20
2018-11-14T07:03:14.842Z,7.30
2018-11-14T07:05:43.207Z,7.40
2018-11-14T07:08:11.568Z,7.50
2018-11-14T07:10:40.018Z,7.60
2018-11-14T07:13:09.739Z,7.80
2018-11-14T07:15:38.614Z,7.80
2018-11-14T07:18:08.059Z,7.70
2018-11-14T07:20:37.942Z,7.60
2018-11-14T07:23:06.371Z,7.80
2018-11-14T07:25:34.758Z,7.80
2018-11-14T07:28:03.154Z,7.60
2018-11-14T07:30:32.184Z,7.50
2018-11-14T07:33:02.859Z,7.30
2018-11-14T07:35:31.217Z,7.50
2018-11-14T07:38:11.594Z,7.60
2018-11-14T07:40:39.979Z,7.60
2018-11-14T07:43:08.353Z,7.60
2018-11-14T07:45:36.752Z,7.50
2018-11-14T07:48:05.216Z,7.40
2018-11-14T07:50:33.579Z,7.50
2018-11-14T07:53:01.966Z,7.40
2018-11-14T07:55:30.287Z,7.40
2018-11-14T07:57:58.662Z,7.30
2018-11-14T08:00:27.023Z,7.40
2018-11-14T08:02:55.574Z,7.50
2018-11-14T08:05:23.926Z,7.30
2018-11-14T08:07:52.447Z,7.00
2018-11-14T08:10:20.730Z,7.10
2018-11-14T08:12:49.764Z,7.30
2018-11-14T08:15:18.142Z,7.30
2018-11-14T08:17:46.505Z,7.40
2018-11-14T08:20:14.834Z,7.50
2018-11-14T08:22:43.251Z,7.50
2018-11-14T08:25:11.893Z,7.40
2018-11-14T08:27:40.218Z,7.40
2018-11-14T08:30:10.541Z,7.50
2018-11-14T08:32:39.532Z,7.50
2018-11-14T08:35:09.251Z,7.70
2018-11-14T08:37:37.963Z,7.80
2018-11-14T08:40:07.790Z,7.80
2018-11-14T08:42:36.667Z,7.60
2018-11-14T08:45:06.604Z,7.70
2018-11-14T08:47:35.018Z,7.60
2018-11-14T08:50:03.543Z,7.70
2018-11-14T08:52:31.944Z,7.80
2018-11-14T08:55:05.151Z,7.70
2018-11-14T08:57:33.498Z,7.80
2018-11-14T09:00:01.892Z,7.80
2018-11-14T09:02:30.379Z,7.80
2018-11-14T09:04:58.815Z,7.50
2018-11-14T09:07:27.188Z,7.50
2018-11-14T09:09:55.549Z,7.60
2018-11-14T09:12:23.931Z,7.70
2018-11-14T09:14:52.407Z,7.90
2018-11-14T09:17:20.787Z,8.10
2018-11-14T09:19:49.162Z,7.90
2018-11-14T09:22:18.853Z,8.00
2018-11-14T09:24:47.375Z,8.10
2018-11-14T09:27:15.733Z,8.20
2018-11-14T09:29:44.097Z,8.30
2018-11-14T09:32:12.464Z,8.40
2018-11-14T09:34:40.885Z,8.60
2018-11-14T09:37:09.258Z,8.50
2018-11-14T09:39:37.614Z,8.60
2018-11-14T09:42:06.964Z,8.60
2018-11-14T09:44:35.916Z,8.70
2018-11-14T09:47:04.338Z,8.80
2018-11-14T09:49:32.948Z,8.90
2018-11-14T09:52:01.198Z,8.90
2018-11-14T09:54:29.594Z,8.90
2018-11-14T09:56:58.066Z,9.00
2018-11-14T09:59:26.366Z,9.00
2018-11-14T10:01:55.418Z,8.80
2018-11-14T10:04:23.774Z,8.80
2018-11-14T10:06:52.173Z,8.70
2018-11-14T10:09:20.534Z,8.80
2018-11-14T10:11:50.962Z,8.90
2018-11-14T10:14:19.299Z,9.00
2018-11-14T10:16:47.707Z,9.10
2018-11-14T10:19:16.061Z,8.90
2018-11-14T10:21:44.611Z,8.80
2018-11-14T10:24:13.027Z,8.70
2018-11-14T10:26:41.406Z,8.90
2018-11-14T10:29:09.800Z,8.90
2018-11-14T10:31:38.276Z,8.80
2018-11-14T10:34:06.546Z,8.70
2018-11-14T10:36:34.885Z,8.50
2018-11-14T10:39:03.708Z,8.70
2018-11-14T10:41:32.141Z,9.00
2018-11-14T10:44:00.542Z,9.20
2018-11-14T10:46:28.897Z,9.20
2018-11-14T10:48:57.413Z,9.30
2018-11-14T10:51:25.785Z,9.40
2018-11-14T10:53:54.544Z,9.40
2018-11-14T10:56:22.894Z,9.40
2018-11-14T10:58:51.376Z,9.40
2018-11-14T11:01:25.210Z,9.30
2018-11-14T11:03:58.943Z,9.20
2018-11-14T11:06:34.536Z,9.20
2018-11-14T11:09:09.720Z,9.30
2018-11-14T11:11:43.945Z,9.40
2018-11-14T11:14:17.656Z,9.40
2018-11-14T11:16:51.517Z,9.40
2018-11-14T11:19:23.145Z,9.40
2018-11-14T11:21:51.558Z,9.50
2018-11-14T11:24:20.987Z,9.60
2018-11-14T11:26:49.350Z,9.70
2018-11-14T11:29:17.774Z,9.70
2018-11-14T11:31:46.257Z,9.80
2018-11-14T11:34:14.620Z,9.50
2018-11-14T11:36:43.014Z,9.70
2018-11-14T11:39:13.278Z,9.90
2018-11-14T11:41:42.194Z,10.20
2018-11-14T11:44:10.758Z,10.50
2018-11-14T11:46:40.013Z,10.70
2018-11-14T11:49:08.523Z,10.80
2018-11-14T11:51:36.932Z,10.40
2018-11-14T11:54:06.040Z,10.90
2018-11-14T11:56:34.458Z,11.80
2018-11-14T11:59:02.823Z,12.20
2018-11-14T12:01:31.214Z,12.50
2018-11-14T12:03:59.571Z,12.20
2018-11-14T12:06:28.062Z,12.40
2018-11-14T12:08:56.330Z,12.60
2018-11-14T12:11:24.721Z,13.40
2018-11-14T12:13:53.155Z,13.50
2018-11-14T12:16:21.566Z,13.90
2018-11-14T12:18:50.067Z,13.70
2018-11-14T12:21:18.433Z,13.80
2018-11-14T12:23:46.907Z,14.20
2018-11-14T12:26:15.160Z,14.50
2018-11-14T12:28:43.534Z,14.60
2018-11-14T12:31:12.008Z,14.50
2018-11-14T12:33:40.278Z,14.60
2018-11-14T12:36:08.672Z,15.00
2018-11-14T12:38:37.084Z,15.30
2018-11-14T12:41:05.419Z,15.20
2018-11-14T12:43:34.541Z,15.70
2018-11-14T12:46:02.953Z,15.80
2018-11-14T12:48:31.951Z,16.60
2018-11-14T12:51:00.374Z,16.50
2018-11-14T12:53:28.847Z,16.50
2018-11-14T12:55:57.251Z,16.20
2018-11-14T12:58:26.209Z,15.90
2018-11-14T13:00:54.639Z,15.70
2018-11-14T13:03:23.054Z,15.20
2018-11-14T13:05:51.453Z,14.80
2018-11-14T13:08:19.820Z,14.10
2018-11-14T13:10:48.203Z,14.30
2018-11-14T13:13:16.554Z,14.30
2018-11-14T13:15:45.472Z,14.70
2018-11-14T13:18:13.808Z,14.90
2018-11-14T13:20:42.150Z,15.00
2018-11-14T13:23:10.526Z,15.40
2018-11-14T13:25:38.872Z,15.90
2018-11-14T13:28:07.213Z,15.70
2018-11-14T13:30:35.601Z,15.70
2018-11-14T13:33:03.938Z,15.90
2018-11-14T13:35:32.392Z,15.40
2018-11-14T13:38:00.799Z,15.00
2018-11-14T13:40:29.378Z,14.80
2018-11-14T13:42:57.838Z,14.90
2018-11-14T13:45:26.132Z,14.70
2018-11-14T13:47:54.626Z,14.00
2018-11-14T13:50:23.463Z,14.10
2018-11-14T13:52:51.665Z,13.90
2018-11-14T13:55:21.034Z,13.80
2018-11-14T13:57:50.644Z,13.80
2018-11-14T14:00:20.149Z,14.00
2018-11-14T14:02:49.467Z,13.40
2018-11-14T14:05:20.066Z,13.70
2018-11-14T14:07:48.589Z,13.70
2018-11-14T14:10:17.431Z,13.90
2018-11-14T14:12:47.150Z,13.40
2018-11-14T14:15:23.111Z,13.70
2018-11-14T14:17:51.792Z,13.60
2018-11-14T14:20:20.643Z,13.30
2018-11-14T14:22:49.155Z,13.00
2018-11-14T14:25:22.147Z,12.80
2018-11-14T14:27:51.431Z,12.30
2018-11-14T14:30:21.276Z,12.60
2018-11-14T14:32:49.940Z,12.40
2018-11-14T14:35:19.453Z,12.40
2018-11-14T14:37:47.893Z,12.20
2018-11-14T14:40:17.739Z,12.20
2018-11-14T14:42:46.319Z,12.10
2018-11-14T14:45:16.201Z,12.00
2018-11-14T14:47:44.593Z,11.90
2018-11-14T14:50:15.041Z,11.90
2018-11-14T14:52:43.833Z,11.80
2018-11-14T14:55:17.621Z,11.80
2018-11-14T14:57:46.620Z,11.70
2018-11-14T15:00:20.531Z,11.50
2018-11-14T15:02:48.871Z,11.50
2018-11-14T15:05:17.259Z,11.40
2018-11-14T15:07:45.661Z,11.20
2018-11-14T15:10:16.567Z,11.00
2018-11-14T15:12:44.930Z,11.00
2018-11-14T15:15:14.042Z,10.90
2018-11-14T15:17:42.649Z,10.80
2018-11-14T15:20:14.606Z,10.70
2018-11-14T15:22:43.424Z,10.60
2018-11-14T15:25:13.183Z,10.50
2018-11-14T15:27:42.091Z,10.50
2018-11-14T15:30:19.165Z,10.40
2018-11-14T15:32:47.550Z,10.30
2018-11-14T15:35:15.991Z,10.20
2018-11-14T15:37:44.358Z,10.20
2018-11-14T15:40:14.110Z,10.10
2018-11-14T15:42:42.640Z,9.90
2018-11-14T15:45:14.032Z,9.80
2018-11-14T15:47:42.723Z,9.70
2018-11-14T15:50:13.561Z,9.70
2018-11-14T15:52:43.066Z,9.60
2018-11-14T15:55:12.366Z,9.50
2018-11-14T15:57:40.879Z,9.50
2018-11-14T16:00:14.558Z,9.40
2018-11-14T16:02:43.006Z,9.20
2018-11-14T16:05:13.853Z,9.20
2018-11-14T16:07:43.193Z,9.20
2018-11-14T16:10:12.770Z,9.20
2018-11-14T16:12:41.897Z,9.20
2018-11-14T16:15:12.039Z,9.10
2018-11-14T16:17:41.112Z,9.10
2018-11-14T16:20:11.501Z,9.10
2018-11-14T16:22:39.895Z,8.90
2018-11-14T16:25:11.017Z,8.80
2018-11-14T16:27:39.801Z,8.90
2018-11-14T16:30:11.668Z,8.80
2018-11-14T16:32:40.017Z,8.60
2018-11-14T16:35:08.403Z,8.70
2018-11-14T16:37:36.830Z,8.50
2018-11-14T16:40:07.398Z,8.40
2018-11-14T16:42:35.726Z,8.40
2018-11-14T16:45:04.327Z,8.40
2018-11-14T16:47:32.635Z,8.40
2018-11-14T16:50:01.056Z,8.20
2018-11-14T16:52:29.403Z,8.30
2018-11-14T16:54:57.791Z,8.20
2018-11-14T16:57:26.212Z,8.20
2018-11-14T16:59:54.712Z,8.20
2018-11-14T17:02:23.055Z,8.10
2018-11-14T17:04:51.812Z,8.10
2018-11-14T17:07:20.273Z,8.00
2018-11-14T17:09:48.617Z,8.00
2018-11-14T17:12:17.003Z,7.90
2018-11-14T17:14:45.425Z,7.80
2018-11-14T17:17:13.817Z,7.80
2018-11-14T17:19:42.167Z,7.80
2018-11-14T17:22:10.586Z,7.70
2018-11-14T17:24:39.055Z,7.70
2018-11-14T17:27:07.563Z,7.90
2018-11-14T17:29:35.966Z,8.00
2018-11-14T17:32:04.373Z,8.00
2018-11-14T17:34:32.734Z,8.00
2018-11-14T17:37:01.145Z,7.90
2018-11-14T17:39:29.466Z,7.90
2018-11-14T17:41:58.098Z,7.80
2018-11-14T17:44:26.442Z,8.00
2018-11-14T17:46:54.828Z,8.00
2018-11-14T17:49:23.268Z,8.10
2018-11-14T17:51:51.664Z,8.10
2018-11-14T17:54:20.089Z,8.10
2018-11-14T17:56:48.468Z,8.10
2018-11-14T17:59:16.855Z,8.10
2018-11-14T18:01:49.667Z,8.20
2018-11-14T18:04:18.102Z,8.20
2018-11-14T18:06:46.444Z,8.00
2018-11-14T18:09:15.071Z,8.00
2018-11-14T18:11:43.435Z,8.00
2018-11-14T18:14:11.888Z,8.10
2018-11-14T18:16:40.239Z,8.30
2018-11-14T18:19:08.706Z,8.40
2018-11-14T18:21:37.092Z,8.30
2018-11-14T18:24:05.756Z,8.40
2018-11-14T18:26:34.240Z,8.40
2018-11-14T18:29:02.763Z,8.30
2018-11-14T18:31:31.190Z,8.20
2018-11-14T18:33:59.606Z,8.20
2018-11-14T18:36:28.170Z,8.10
2018-11-14T18:38:56.503Z,8.10
2018-11-14T18:41:24.982Z,8.10
2018-11-14T18:43:53.363Z,8.20
2018-11-14T18:46:21.811Z,8.30
2018-11-14T18:48:50.152Z,8.40
2018-11-14T18:51:18.688Z,8.30
2018-11-14T18:53:47.152Z,8.20
2018-11-14T18:56:15.639Z,8.30
2018-11-14T18:58:44.031Z,8.40
2018-11-14T19:01:13.112Z,8.30
2018-11-14T19:03:41.601Z,8.40
2018-11-14T19:06:10.073Z,8.40
2018-11-14T19:08:38.546Z,8.40
2018-11-14T19:11:07.927Z,8.40
2018-11-14T19:13:36.329Z,8.40
2018-11-14T19:16:05.038Z,8.40
2018-11-14T19:18:33.481Z,8.40
2018-11-14T19:21:02.039Z,8.50
2018-11-14T19:23:30.472Z,8.60
2018-11-14T19:25:59.514Z,8.60
2018-11-14T19:28:27.954Z,8.60
2018-11-14T19:30:57.008Z,8.50
2018-11-14T19:33:25.442Z,8.50
2018-11-14T19:35:53.895Z,8.50
2018-11-14T19:38:23.096Z,8.60
2018-11-14T19:40:51.595Z,8.70
2018-11-14T19:43:20.029Z,8.60
2018-11-14T19:45:48.411Z,8.50
2018-11-14T19:48:16.830Z,8.40
2018-11-14T19:50:45.198Z,8.50
2018-11-14T19:53:14.582Z,8.40
2018-11-14T19:55:43.154Z,8.30
2018-11-14T19:58:11.477Z,8.40
2018-11-14T20:00:40.379Z,8.40
2018-11-14T20:03:09.437Z,8.40
2018-11-14T20:05:38.682Z,8.40
2018-11-14T20:08:07.102Z,8.50
2018-11-14T20:10:35.627Z,8.40
2018-11-14T20:13:03.993Z,8.40
2018-11-14T20:15:33.818Z,8.50
2018-11-14T20:18:02.292Z,8.50
2018-11-14T20:20:32.125Z,8.30
2018-11-14T20:23:00.515Z,8.30
2018-11-14T20:25:28.991Z,8.40
2018-11-14T20:27:57.360Z,8.30
2018-11-14T20:30:27.317Z,8.30
2018-11-14T20:32:56.984Z,8.40
2018-11-14T20:35:25.980Z,8.50
2018-11-14T20:37:54.396Z,8.40
2018-11-14T20:40:23.300Z,8.50
2018-11-14T20:42:52.462Z,8.50
2018-11-14T20:45:35.664Z,8.40
2018-11-14T20:48:04.109Z,8.30
2018-11-14T20:50:32.594Z,8.30
2018-11-14T20:53:02.652Z,8.30
2018-11-14T20:55:31.919Z,8.20
2018-11-14T20:58:00.801Z,8.30
2018-11-14T21:00:36.684Z,8.30
2018-11-14T21:03:05.755Z,8.30
2018-11-14T21:05:34.271Z,8.30
2018-11-14T21:08:02.592Z,8.30
2018-11-14T21:10:32.307Z,8.30
2018-11-14T21:13:01.436Z,8.30
2018-11-14T21:15:31.250Z,8.00
2018-11-14T21:18:00.573Z,8.00
2018-11-14T21:20:29.055Z,7.90
2018-11-14T21:22:57.529Z,7.90
2018-11-14T21:25:26.364Z,8.00
2018-11-14T21:27:55.338Z,8.00
2018-11-14T21:30:25.057Z,8.00
2018-11-14T21:32:53.662Z,8.00
2018-11-14T21:35:24.741Z,8.10
2018-11-14T21:37:54.516Z,8.10
2018-11-14T21:40:23.653Z,8.00
2018-11-14T21:42:52.022Z,8.00
2018-11-14T21:45:21.911Z,8.00
2018-11-14T21:47:55.696Z,8.00
2018-11-14T21:50:25.301Z,8.00
2018-11-14T21:52:53.826Z,8.10
2018-11-14T21:55:22.191Z,8.30
2018-11-14T21:57:50.535Z,8.00
2018-11-14T22:00:21.507Z,7.90
2018-11-14T22:02:51.295Z,7.90
2018-11-14T22:05:19.858Z,7.90
2018-11-14T22:07:48.295Z,8.00
2018-11-14T22:10:17.874Z,7.80
2018-11-14T22:12:46.647Z,7.80
2018-11-14T22:15:16.112Z,7.70
2018-11-14T22:17:44.479Z,7.60
2018-11-14T22:20:15.572Z,7.60
2018-11-14T22:22:45.886Z,7.60
2018-11-14T22:25:18.660Z,7.60
2018-11-14T22:27:47.090Z,7.60
2018-11-14T22:30:18.307Z,7.50
2018-11-14T22:32:46.722Z,7.40
2018-11-14T22:35:16.309Z,7.40
2018-11-14T22:37:44.758Z,7.40
2018-11-14T22:40:14.824Z,7.50
2018-11-14T22:42:43.560Z,7.40
2018-11-14T22:45:14.403Z,7.40
2018-11-14T22:47:43.296Z,7.50
2018-11-14T22:50:13.118Z,7.50
2018-11-14T22:52:42.294Z,7.40
2018-11-14T22:55:11.982Z,7.40
2018-11-14T22:57:40.678Z,7.40
2018-11-14T23:00:29.939Z,7.30
2018-11-14T23:02:59.434Z,7.40
2018-11-14T23:05:28.213Z,7.60
2018-11-14T23:07:57.642Z,7.60
2018-11-14T23:10:26.607Z,7.60
2018-11-14T23:12:54.993Z,7.60
2018-11-14T23:15:24.207Z,7.60
2018-11-14T23:17:52.679Z,7.50
2018-11-14T23:20:21.105Z,7.40
2018-11-14T23:22:50.127Z,7.30
2018-11-14T23:25:19.055Z,7.30
2018-11-14T23:27:49.678Z,7.30
2018-11-14T23:30:19.181Z,7.20
2018-11-14T23:32:48.892Z,7.20
2018-11-14T23:35:21.344Z,7.20
2018-11-14T23:37:50.988Z,7.20
2018-11-14T23:40:19.559Z,7.30
2018-11-14T23:42:48.353Z,7.20
2018-11-14T23:45:17.255Z,7.30
2018-11-14T23:47:46.304Z,7.20
2018-11-14T23:50:18.003Z,7.20
2018-11-14T23:52:47.351Z,7.20
2018-11-14T23:55:16.413Z,7.10
2018-11-14T23:57:44.801Z,7.10
